Time;durP1;ratioP1;P1;durP2;ratioP2;P2;SDS_P1;SDS_P2;PMS_P1;PMS_P2;Temp;Humidity;BMP_temperature;BMP_pressure;BME280_temperature;BME280_humidity;BME280_pressure;Samples;Min_cycle;Max_cycle;Signal;HPM_P1;HPM_P2
2023/05/01 05:02:24;;;;;;;;;42.50;36.25;;;;;;;;5067483;22;45335;-58
2023/05/01 05:04:49;;;;;;;;;46.00;35.67;;;;;;;;5022272;28;45299;-60
2023/05/01 05:07:15;;;;;;;;;51.25;40.75;;;;;;;;5022678;28;45360;-61
2023/05/01 05:09:40;;;;;;;;;47.25;38.50;;;;;;;;5022818;28;45479;-60
2023/05/01 05:12:05;;;;;;;;;46.00;38.00;;;;;;;;5022114;28;46813;-60
2023/05/01 05:14:31;;;;;;;;;49.75;40.25;;;;;;;;5022430;28;45327;-60
2023/05/01 05:16:56;;;;;;;;;45.25;38.25;;;;;;;;5022372;28;45150;-60
2023/05/01 05:19:21;;;;;;;;;46.75;38.25;;;;;;;;5022386;28;45204;-60
2023/05/01 05:21:46;;;;;;;;;52.00;41.75;;;;;;;;5022205;28;46020;-60
2023/05/01 05:24:12;;;;;;;;;46.25;39.00;;;;;;;;5022337;28;45230;-60
2023/05/01 05:26:37;;;;;;;;;49.75;40.00;;;;;;;;5022122;28;45247;-61
2023/05/01 05:29:02;;;;;;;;;46.25;38.25;;;;;;;;5022390;28;45207;-60
2023/05/01 05:31:28;;;;;;;;;56.75;41.25;;;;;;;;5010254;28;45390;-61
2023/05/01 05:33:53;;;;;;;;;51.50;43.25;;;;;;;;5022045;28;45208;-60
2023/05/01 05:36:18;;;;;;;;;51.00;41.00;;;;;;;;5022241;28;45220;-61
2023/05/01 05:38:43;;;;;;;;;49.25;41.50;;;;;;;;5021092;28;45518;-61
2023/05/01 05:41:08;;;;;;;;;49.50;40.00;;;;;;;;5021776;28;46161;-61
2023/05/01 05:43:33;;;;;;;;;43.00;37.75;;;;;;;;5022303;28;45386;-61
2023/05/01 05:45:59;;;;;;;;;48.25;40.75;;;;;;;;5021949;28;45226;-60
2023/05/01 05:48:25;;;;;;;;;50.25;40.75;;;;;;;;5022171;28;45160;-61
2023/05/01 05:50:51;;;;;;;;;50.50;40.25;;;;;;;;5021084;28;45947;-61
2023/05/01 05:53:16;;;;;;;;;51.25;39.50;;;;;;;;5021927;28;45397;-61
2023/05/01 05:55:42;;;;;;;;;50.00;42.00;;;;;;;;5021665;28;45368;-60
2023/05/01 05:58:07;;;;;;;;;55.50;44.75;;;;;;;;5021924;28;45421;-61
2023/05/01 06:00:32;;;;;;;;;47.75;40.25;;;;;;;;5021539;28;46264;-61
2023/05/01 06:02:57;;;;;;;;;49.75;41.50;;;;;;;;5021906;28;45286;-60
2023/05/01 06:05:23;;;;;;;;;60.00;45.00;;;;;;;;5021611;28;45447;-60
2023/05/01 06:07:48;;;;;;;;;53.75;43.75;;;;;;;;5021832;28;45316;-60
2023/05/01 06:10:13;;;;;;;;;59.00;44.50;;;;;;;;5021497;28;45952;-61
2023/05/01 06:12:38;;;;;;;;;55.50;43.50;;;;;;;;5021515;28;45305;-60
2023/05/01 06:15:04;;;;;;;;;57.25;47.25;;;;;;;;5021655;28;45254;-60
2023/05/01 06:17:30;;;;;;;;;55.75;44.25;;;;;;;;5021604;28;45334;-60
2023/05/01 06:19:55;;;;;;;;;55.00;43.75;;;;;;;;5021092;28;46895;-60
2023/05/01 06:22:21;;;;;;;;;57.75;45.25;;;;;;;;5021512;28;45320;-61
2023/05/01 06:24:46;;;;;;;;;58.25;43.50;;;;;;;;5021457;28;45243;-60
2023/05/01 06:27:11;;;;;;;;;60.25;46.25;;;;;;;;5021468;28;45211;-60
2023/05/01 06:29:36;;;;;;;;;60.50;46.75;;;;;;;;5021154;28;45339;-60
2023/05/01 06:32:02;;;;;;;;;61.25;46.50;;;;;;;;5010047;28;45206;-60
2023/05/01 06:34:28;;;;;;;;;56.50;43.75;;;;;;;;5020983;28;45228;-60
2023/05/01 06:36:53;;;;;;;;;54.50;45.00;;;;;;;;5021464;28;45274;-60
2023/05/01 06:39:18;;;;;;;;;56.50;44.50;;;;;;;;5020902;28;46207;-60
2023/05/01 06:41:46;;;;;;;;;57.50;46.75;;;;;;;;5021205;28;45210;-60
2023/05/01 06:44:12;;;;;;;;;62.75;47.75;;;;;;;;5021268;28;45417;-60
2023/05/01 06:46:37;;;;;;;;;52.33;42.33;;;;;;;;5021294;28;45408;-60
2023/05/01 06:49:02;;;;;;;;;52.33;41.00;;;;;;;;5020605;28;45489;-61
2023/05/01 06:51:29;;;;;;;;;55.33;43.33;;;;;;;;5021106;28;45343;-60
2023/05/01 06:53:54;;;;;;;;;52.00;42.33;;;;;;;;5036347;28;45288;-61
2023/05/01 06:56:20;;;;;;;;;53.67;41.00;;;;;;;;5020948;28;45271;-60
2023/05/01 06:58:45;;;;;;;;;47.33;38.67;;;;;;;;5020617;28;46352;-61
2023/05/01 07:01:11;;;;;;;;;46.67;39.00;;;;;;;;5020795;28;45221;-61
2023/05/01 07:03:36;;;;;;;;;48.00;39.00;;;;;;;;5020072;28;45153;-59
2023/05/01 07:06:01;;;;;;;;;49.00;40.33;;;;;;;;5020784;28;45240;-60
2023/05/01 07:08:27;;;;;;;;;47.33;38.67;;;;;;;;5020527;28;45991;-60
2023/05/01 07:10:52;;;;;;;;;48.00;40.67;;;;;;;;5021000;28;45220;-58
2023/05/01 07:13:18;;;;;;;;;51.00;40.00;;;;;;;;5020562;28;45199;-61
2023/05/01 07:15:44;;;;;;;;;42.67;34.67;;;;;;;;5020894;28;45495;-59
2023/05/01 07:18:11;;;;;;;;;40.33;35.33;;;;;;;;5020417;28;46212;-59
2023/05/01 07:20:36;;;;;;;;;45.67;35.00;;;;;;;;5020333;28;45340;-60
2023/05/01 07:23:02;;;;;;;;;32.00;30.00;;;;;;;;5020662;28;45334;-61
2023/05/01 07:25:27;;;;;;;;;38.00;33.00;;;;;;;;5020517;28;45602;-61
2023/05/01 07:27:53;;;;;;;;;32.33;31.00;;;;;;;;5020441;28;45295;-58
2023/05/01 07:30:19;;;;;;;;;41.67;32.33;;;;;;;;5014686;28;45343;-58
2023/05/01 07:32:44;;;;;;;;;29.00;26.67;;;;;;;;5014195;28;45256;-58
2023/05/01 07:35:10;;;;;;;;;36.00;28.67;;;;;;;;5020208;28;45378;-61
2023/05/01 07:37:35;;;;;;;;;26.00;25.00;;;;;;;;5020064;28;46123;-61
2023/05/01 07:40:00;;;;;;;;;32.33;24.00;;;;;;;;5020717;28;45280;-60
2023/05/01 07:42:26;;;;;;;;;22.00;20.67;;;;;;;;5020443;28;45221;-60
2023/05/01 07:44:51;;;;;;;;;26.33;22.67;;;;;;;;5020417;28;45285;-60
2023/05/01 07:47:16;;;;;;;;;20.00;19.00;;;;;;;;5018689;28;46047;-60
2023/05/01 07:49:42;;;;;;;;;19.67;19.33;;;;;;;;5020259;28;45211;-60
2023/05/01 07:52:07;;;;;;;;;20.67;19.33;;;;;;;;5020289;28;45295;-60
2023/05/01 07:54:33;;;;;;;;;22.00;17.33;;;;;;;;5020546;28;45134;-60
2023/05/01 07:56:58;;;;;;;;;23.33;19.67;;;;;;;;5019877;28;45169;-60
2023/05/01 07:59:23;;;;;;;;;23.33;19.00;;;;;;;;5018762;28;45180;-60
2023/05/01 08:01:48;;;;;;;;;19.33;18.33;;;;;;;;5020172;28;45543;-60
2023/05/01 08:04:14;;;;;;;;;18.00;16.00;;;;;;;;5019829;28;45272;-60
2023/05/01 08:06:39;;;;;;;;;23.67;19.00;;;;;;;;5019940;28;46134;-60
2023/05/01 08:09:04;;;;;;;;;21.00;18.33;;;;;;;;5020139;28;45279;-60
2023/05/01 08:11:30;;;;;;;;;18.67;17.00;;;;;;;;5020027;28;45306;-60
2023/05/01 08:13:55;;;;;;;;;29.67;23.67;;;;;;;;5020342;28;45496;-60
2023/05/01 08:16:21;;;;;;;;;28.00;23.00;;;;;;;;5023127;28;45283;-61
2023/05/01 08:18:46;;;;;;;;;30.33;22.00;;;;;;;;5022952;28;45462;-60
2023/05/01 08:21:11;;;;;;;;;29.67;24.33;;;;;;;;5023634;28;45320;-60
2023/05/01 08:23:36;;;;;;;;;27.33;24.00;;;;;;;;5023231;28;45557;-60
2023/05/01 08:26:02;;;;;;;;;28.33;25.33;;;;;;;;5023005;28;46557;-60
2023/05/01 08:28:27;;;;;;;;;29.00;28.33;;;;;;;;5023225;28;45261;-60
2023/05/01 08:30:52;;;;;;;;;32.00;26.00;;;;;;;;5013019;28;45478;-60
2023/05/01 08:33:17;;;;;;;;;27.67;23.00;;;;;;;;5022096;28;45586;-60
2023/05/01 08:35:43;;;;;;;;;24.67;23.00;;;;;;;;5022771;28;46286;-60
2023/05/01 08:38:09;;;;;;;;;26.33;22.33;;;;;;;;5022858;28;45395;-60
2023/05/01 08:40:35;;;;;;;;;25.33;25.33;;;;;;;;5023176;28;45358;-60
2023/05/01 08:43:01;;;;;;;;;31.33;21.00;;;;;;;;5022865;28;45533;-60
2023/05/01 08:45:27;;;;;;;;;22.67;21.00;;;;;;;;5021587;28;46850;-60
2023/05/01 08:47:53;;;;;;;;;27.33;22.67;;;;;;;;5022792;28;45246;-60
2023/05/01 08:50:21;;;;;;;;;23.33;21.33;;;;;;;;5022729;28;45279;-60
2023/05/01 08:52:47;;;;;;;;;18.00;16.33;;;;;;;;5022787;28;45511;-60
2023/05/01 08:55:13;;;;;;;;;24.67;17.33;;;;;;;;5022482;28;46065;-61
2023/05/01 08:57:43;;;;;;;;;21.33;17.33;;;;;;;;5022971;28;45271;-60
2023/05/01 09:00:13;;;;;;;;;16.67;16.33;;;;;;;;5022519;28;45549;-61
2023/05/01 09:02:39;;;;;;;;;15.33;12.67;;;;;;;;5022731;28;45355;-60
2023/05/01 09:05:05;;;;;;;;;22.33;20.67;;;;;;;;5022204;28;45339;-60
2023/05/01 09:07:30;;;;;;;;;17.67;16.33;;;;;;;;5022760;28;45353;-60
2023/05/01 09:09:55;;;;;;;;;16.33;16.00;;;;;;;;5022830;28;45287;-61
2023/05/01 09:12:20;;;;;;;;;18.67;18.67;;;;;;;;5022343;28;45541;-59
2023/05/01 09:14:45;;;;;;;;;24.75;19.00;;;;;;;;5022550;28;45382;-59
2023/05/01 09:17:11;;;;;;;;;16.67;15.00;;;;;;;;5022364;28;45284;-59
2023/05/01 09:19:36;;;;;;;;;13.00;11.00;;;;;;;;5022198;28;45180;-59
2023/05/01 09:22:01;;;;;;;;;12.33;12.33;;;;;;;;5022353;28;45236;-59
2023/05/01 09:24:27;;;;;;;;;21.00;17.00;;;;;;;;5037325;28;47237;-59
2023/05/01 09:26:52;;;;;;;;;19.00;15.67;;;;;;;;5019913;28;45247;-59
2023/05/01 09:29:36;;;;;;;;;18.67;16.33;;;;;;;;5022414;28;46415;-59
2023/05/01 09:32:19;;;;;;;;;13.67;12.67;;;;;;;;5011392;28;45518;-59
2023/05/01 09:34:45;;;;;;;;;13.33;10.33;;;;;;;;5021290;28;46314;-59
2023/05/01 09:37:28;;;;;;;;;16.00;16.00;;;;;;;;5022067;28;45271;-59
2023/05/01 09:40:07;;;;;;;;;10.33;6.67;;;;;;;;5022349;28;45302;-59
2023/05/01 09:42:33;;;;;;;;;12.67;12.00;;;;;;;;5021739;28;45481;-60
2023/05/01 09:44:59;;;;;;;;;11.33;11.33;;;;;;;;5021729;28;45344;-59
2023/05/01 09:47:27;;;;;;;;;13.00;13.00;;;;;;;;5021810;28;45239;-59
2023/05/01 09:49:53;;;;;;;;;15.00;10.33;;;;;;;;5036966;28;45425;-59
2023/05/01 09:52:18;;;;;;;;;11.67;10.00;;;;;;;;5021816;28;45252;-59
2023/05/01 09:54:43;;;;;;;;;9.67;8.67;;;;;;;;5021761;28;45429;-60
2023/05/01 09:57:09;;;;;;;;;10.00;8.00;;;;;;;;5021691;28;45338;-60
2023/05/01 09:59:34;;;;;;;;;7.33;6.33;;;;;;;;5021935;28;45227;-60
2023/05/01 10:01:59;;;;;;;;;8.00;7.67;;;;;;;;5021668;28;45367;-60
2023/05/01 10:04:31;;;;;;;;;12.00;11.33;;;;;;;;5021456;28;45385;-60
2023/05/01 10:06:57;;;;;;;;;10.00;9.00;;;;;;;;5036732;28;45555;-60
2023/05/01 10:09:27;;;;;;;;;10.00;8.33;;;;;;;;5021656;28;45393;-60
2023/05/01 10:11:53;;;;;;;;;12.67;11.00;;;;;;;;5021591;28;45158;-60
2023/05/01 10:14:19;;;;;;;;;8.00;4.00;;;;;;;;5021491;28;46227;-60
2023/05/01 10:16:45;;;;;;;;;12.00;11.00;;;;;;;;5021077;28;45173;-60
2023/05/01 10:19:10;;;;;;;;;8.67;8.33;;;;;;;;5021339;28;45278;-60
2023/05/01 10:21:36;;;;;;;;;13.33;13.33;;;;;;;;5021252;28;45534;-60
2023/05/01 10:24:04;;;;;;;;;16.33;15.67;;;;;;;;5036506;28;46034;-60
2023/05/01 10:26:31;;;;;;;;;20.00;14.33;;;;;;;;5021078;28;45320;-60
2023/05/01 10:28:58;;;;;;;;;16.33;16.00;;;;;;;;5021336;28;45279;-60
2023/05/01 10:31:24;;;;;;;;;17.67;17.33;;;;;;;;5009592;28;45166;-60
2023/05/01 10:33:51;;;;;;;;;11.33;11.00;;;;;;;;5021058;28;46246;-60
2023/05/01 10:36:19;;;;;;;;;13.33;11.33;;;;;;;;5021207;28;45357;-60
2023/05/01 10:38:47;;;;;;;;;14.67;12.33;;;;;;;;5019952;28;45381;-60
2023/05/01 10:41:13;;;;;;;;;12.00;12.00;;;;;;;;5021065;28;45482;-60
2023/05/01 10:43:38;;;;;;;;;14.67;12.00;;;;;;;;5021074;28;46211;-60
2023/05/01 10:46:06;;;;;;;;;16.00;13.00;;;;;;;;5020835;28;45267;-61
2023/05/01 10:48:47;;;;;;;;;15.67;15.67;;;;;;;;5020921;28;45225;-61
2023/05/01 10:51:16;;;;;;;;;16.00;13.00;;;;;;;;5021101;28;45667;-60
2023/05/01 10:53:42;;;;;;;;;17.67;14.00;;;;;;;;5020813;28;46217;-60
2023/05/01 10:56:26;;;;;;;;;15.00;15.00;;;;;;;;5020699;28;45330;-60
2023/05/01 10:58:51;;;;;;;;;16.00;13.33;;;;;;;;5020766;28;45316;-61
2023/05/01 11:01:36;;;;;;;;;11.33;11.33;;;;;;;;5020787;28;45311;-61
2023/05/01 11:04:26;;;;;;;;;14.33;12.67;;;;;;;;5020331;28;46347;-60
2023/05/01 11:07:04;;;;;;;;;11.33;11.33;;;;;;;;5020573;28;45343;-61
2023/05/01 11:09:35;;;;;;;;;14.67;11.33;;;;;;;;5020964;28;45216;-61
2023/05/01 11:12:00;;;;;;;;;16.33;13.00;;;;;;;;5019373;28;45620;-61
2023/05/01 11:14:25;;;;;;;;;10.00;9.00;;;;;;;;5020725;28;46262;-61
2023/05/01 11:16:51;;;;;;;;;13.67;12.00;;;;;;;;5019382;28;45458;-61
2023/05/01 11:19:19;;;;;;;;;13.00;12.33;;;;;;;;5019470;28;45267;-61
2023/05/01 11:21:44;;;;;;;;;12.00;10.00;;;;;;;;5020611;28;45208;-61
2023/05/01 11:24:10;;;;;;;;;13.33;12.33;;;;;;;;5020426;28;45362;-61
2023/05/01 11:26:39;;;;;;;;;13.00;10.67;;;;;;;;5020375;28;45335;-61
2023/05/01 11:29:05;;;;;;;;;10.00;9.00;;;;;;;;5021376;28;45320;-61
2023/05/01 11:31:31;;;;;;;;;11.67;11.00;;;;;;;;5035588;28;45580;-61
2023/05/01 11:33:59;;;;;;;;;11.67;11.67;;;;;;;;5018736;28;46741;-61
2023/05/01 11:36:28;;;;;;;;;13.00;13.00;;;;;;;;5020283;28;45418;-60
2023/05/01 11:38:57;;;;;;;;;8.33;8.33;;;;;;;;5020489;28;45322;-61
2023/05/01 11:41:23;;;;;;;;;12.33;11.67;;;;;;;;5020083;28;45394;-62
2023/05/01 11:43:52;;;;;;;;;14.67;10.67;;;;;;;;5020153;28;45285;-61
2023/05/01 11:46:30;;;;;;;;;12.00;9.67;;;;;;;;5020127;28;45291;-61
2023/05/01 11:48:58;;;;;;;;;11.00;9.50;;;;;;;;5020508;28;45340;-61
2023/05/01 11:51:23;;;;;;;;;9.67;8.00;;;;;;;;5023898;28;45243;-61
2023/05/01 11:54:01;;;;;;;;;11.67;10.00;;;;;;;;5023707;28;45161;-61
2023/05/01 11:56:26;;;;;;;;;5.00;5.00;;;;;;;;5022468;28;45484;-61
2023/05/01 11:58:52;;;;;;;;;5.00;5.00;;;;;;;;5023904;28;45588;-61
2023/05/01 12:01:17;;;;;;;;;3.00;3.00;;;;;;;;5023956;28;45460;-61
2023/05/01 12:03:43;;;;;;;;;2.00;1.00;;;;;;;;5023080;28;46008;-61
2023/05/01 12:06:10;;;;;;;;;0.50;0.50;;;;;;;;5039288;28;45344;-60
2023/05/01 12:08:36;;;;;;;;;0.00;0.00;;;;;;;;5023763;28;45241;-61
2023/05/01 12:11:02;;;;;;;;;0.50;0.50;;;;;;;;5023729;28;45483;-61
2023/05/01 12:13:27;;;;;;;;;0.00;0.00;;;;;;;;5023355;28;46984;-60
2023/05/01 12:15:53;;;;;;;;;0.00;0.00;;;;;;;;5023759;28;45204;-60
2023/05/01 12:18:20;;;;;;;;;0.33;0.33;;;;;;;;5023128;28;45247;-60
2023/05/01 12:20:50;;;;;;;;;0.33;0.00;;;;;;;;5023156;28;45340;-60
2023/05/01 12:23:16;;;;;;;;;0.00;0.00;;;;;;;;5023230;28;46153;-60
2023/05/01 12:25:42;;;;;;;;;1.00;1.00;;;;;;;;5023206;28;45309;-60
2023/05/01 12:28:12;;;;;;;;;1.00;1.00;;;;;;;;5023425;28;45315;-61
2023/05/01 12:30:37;;;;;;;;;1.67;1.67;;;;;;;;5015079;28;45430;-60
2023/05/01 12:33:12;;;;;;;;;2.00;1.00;;;;;;;;5020343;28;46203;-60
2023/05/01 12:35:38;;;;;;;;;1.33;1.33;;;;;;;;5023511;28;45326;-60
2023/05/01 12:38:11;;;;;;;;;4.67;2.67;;;;;;;;5023321;28;45471;-60
2023/05/01 12:40:37;;;;;;;;;3.67;3.00;;;;;;;;5023072;28;45342;-61
2023/05/01 12:43:02;;;;;;;;;2.00;1.33;;;;;;;;5022994;28;46916;-60
2023/05/01 12:45:27;;;;;;;;;4.33;3.00;;;;;;;;5023044;28;45390;-60
2023/05/01 12:47:52;;;;;;;;;4.00;4.00;;;;;;;;5023303;28;45389;-60
2023/05/01 12:50:18;;;;;;;;;3.33;3.33;;;;;;;;5022873;28;45362;-60
2023/05/01 12:52:43;;;;;;;;;6.00;5.00;;;;;;;;5023016;28;46051;-60
2023/05/01 12:55:08;;;;;;;;;4.33;3.00;;;;;;;;5022887;28;45386;-60
2023/05/01 12:57:34;;;;;;;;;5.00;5.00;;;;;;;;5023032;28;45437;-60
2023/05/01 13:00:00;;;;;;;;;7.00;6.00;;;;;;;;5022781;28;45318;-60
2023/05/01 13:02:29;;;;;;;;;7.00;5.33;;;;;;;;5021502;28;46286;-60
2023/05/01 13:05:04;;;;;;;;;6.33;5.00;;;;;;;;5022722;28;45290;-60
2023/05/01 13:07:29;;;;;;;;;6.00;6.00;;;;;;;;5023084;28;45212;-60
2023/05/01 13:09:56;;;;;;;;;6.00;5.33;;;;;;;;5022909;28;45363;-60
2023/05/01 13:12:22;;;;;;;;;6.33;6.33;;;;;;;;5022652;28;47101;-60
2023/05/01 13:14:47;;;;;;;;;6.33;6.33;;;;;;;;5022540;28;45712;-60
2023/05/01 13:17:20;;;;;;;;;5.33;4.33;;;;;;;;5022871;28;45635;-60
2023/05/01 13:19:51;;;;;;;;;6.00;4.00;;;;;;;;5022343;28;45237;-61
2023/05/01 13:22:17;;;;;;;;;4.67;3.00;;;;;;;;5022691;28;45233;-60
2023/05/01 13:24:43;;;;;;;;;6.00;3.00;;;;;;;;5022362;28;45356;-60
2023/05/01 13:27:09;;;;;;;;;6.33;5.33;;;;;;;;5022642;28;45169;-60
2023/05/01 13:29:35;;;;;;;;;5.00;5.00;;;;;;;;5022514;28;45402;-60
2023/05/01 13:32:04;;;;;;;;;4.67;4.33;;;;;;;;5011008;28;46037;-61
2023/05/01 13:34:31;;;;;;;;;3.33;3.33;;;;;;;;5022104;28;45331;-61
2023/05/01 13:36:58;;;;;;;;;3.00;2.00;;;;;;;;5022349;28;45232;-61
2023/05/01 13:39:23;;;;;;;;;1.67;1.67;;;;;;;;5020913;28;45605;-61
2023/05/01 13:41:52;;;;;;;;;4.00;4.00;;;;;;;;5021990;28;46207;-61
2023/05/01 13:44:18;;;;;;;;;6.67;4.00;;;;;;;;5022064;28;45780;-61
2023/05/01 13:46:43;;;;;;;;;3.67;3.67;;;;;;;;5022229;28;45379;-61
2023/05/01 13:49:08;;;;;;;;;4.00;4.00;;;;;;;;5021735;28;45415;-61
2023/05/01 13:51:36;;;;;;;;;4.67;4.00;;;;;;;;5022086;28;46099;-61
2023/05/01 13:54:02;;;;;;;;;3.67;3.67;;;;;;;;5021801;28;45268;-61
2023/05/01 13:56:27;;;;;;;;;5.00;5.00;;;;;;;;5022179;28;45265;-61
2023/05/01 13:58:53;;;;;;;;;4.00;4.00;;;;;;;;5021757;28;45252;-61
2023/05/01 14:01:22;;;;;;;;;6.00;6.00;;;;;;;;5021957;28;45272;-61
2023/05/01 14:03:47;;;;;;;;;8.67;8.67;;;;;;;;5021464;28;45347;-61
2023/05/01 14:06:19;;;;;;;;;10.67;10.33;;;;;;;;5022016;28;45316;-61
2023/05/01 14:08:45;;;;;;;;;13.33;11.00;;;;;;;;5021565;28;45530;-61
2023/05/01 14:11:11;;;;;;;;;9.67;9.67;;;;;;;;5021490;28;46217;-61
2023/05/01 14:13:38;;;;;;;;;12.00;12.00;;;;;;;;5021068;28;45422;-61
2023/05/01 14:16:09;;;;;;;;;10.67;10.67;;;;;;;;5021974;28;45461;-61
2023/05/01 14:18:35;;;;;;;;;15.33;11.33;;;;;;;;5021133;28;45162;-61
2023/05/01 14:21:01;;;;;;;;;16.00;13.67;;;;;;;;5021248;28;47494;-61
2023/05/01 14:23:27;;;;;;;;;13.67;12.67;;;;;;;;5021221;28;45366;-61
2023/05/01 14:25:53;;;;;;;;;14.33;14.00;;;;;;;;5021180;28;45273;-61
2023/05/01 14:28:18;;;;;;;;;14.33;13.67;;;;;;;;5021128;28;45566;-61
2023/05/01 14:30:43;;;;;;;;;8.67;8.67;;;;;;;;5011950;28;46189;-61
2023/05/01 14:33:10;;;;;;;;;15.67;13.33;;;;;;;;5019419;28;45482;-61
2023/05/01 14:35:35;;;;;;;;;16.67;12.33;;;;;;;;5021079;28;45393;-61
2023/05/01 14:38:08;;;;;;;;;11.67;11.67;;;;;;;;5021019;28;45292;-61
2023/05/01 14:40:34;;;;;;;;;12.33;12.33;;;;;;;;5021088;28;46254;-60
2023/05/01 14:43:00;;;;;;;;;16.00;13.33;;;;;;;;5020956;28;45245;-61
2023/05/01 14:45:25;;;;;;;;;7.00;5.33;;;;;;;;5021952;28;45310;-60
2023/05/01 14:47:51;;;;;;;;;12.00;12.00;;;;;;;;5021242;28;45290;-61
2023/05/01 14:50:20;;;;;;;;;11.00;9.67;;;;;;;;5020780;28;46162;-61
2023/05/01 14:52:45;;;;;;;;;11.67;11.33;;;;;;;;5021006;28;45227;-61
2023/05/01 14:55:11;;;;;;;;;9.00;8.33;;;;;;;;5021285;28;45401;-61
2023/05/01 14:57:36;;;;;;;;;12.67;10.00;;;;;;;;5020879;28;45292;-60
2023/05/01 15:00:03;;;;;;;;;8.33;8.33;;;;;;;;5020725;28;46483;-61
2023/05/01 15:02:29;;;;;;;;;9.67;8.00;;;;;;;;5020636;28;45352;-61
2023/05/01 15:04:54;;;;;;;;;9.00;8.00;;;;;;;;5020760;28;45272;-60
2023/05/01 15:07:19;;;;;;;;;12.00;10.00;;;;;;;;5020871;28;45404;-60
2023/05/01 15:09:45;;;;;;;;;10.67;10.00;;;;;;;;5020954;28;45489;-60
2023/05/01 15:12:10;;;;;;;;;7.33;7.33;;;;;;;;5020580;28;45256;-61
2023/05/01 15:14:35;;;;;;;;;7.67;5.00;;;;;;;;5020788;28;45604;-60
2023/05/01 15:17:01;;;;;;;;;9.00;8.00;;;;;;;;5020946;28;45337;-60
2023/05/01 15:19:26;;;;;;;;;9.00;9.00;;;;;;;;5020336;28;46043;-61
2023/05/01 15:21:51;;;;;;;;;10.33;8.33;;;;;;;;5020527;28;45433;-60
2023/05/01 15:24:18;;;;;;;;;8.00;8.00;;;;;;;;5020110;28;45306;-60
2023/05/01 15:26:43;;;;;;;;;10.00;8.00;;;;;;;;5020479;28;45522;-61
2023/05/01 15:29:08;;;;;;;;;10.33;9.33;;;;;;;;5020273;28;45425;-60
2023/05/01 15:31:34;;;;;;;;;11.00;7.00;;;;;;;;5009149;28;45346;-61
2023/05/01 15:34:00;;;;;;;;;8.00;8.00;;;;;;;;5020533;28;45247;-60
2023/05/01 15:36:25;;;;;;;;;10.00;7.00;;;;;;;;5020418;28;45470;-61
2023/05/01 15:38:50;;;;;;;;;10.00;8.00;;;;;;;;5020473;28;45195;-60
2023/05/01 15:41:16;;;;;;;;;7.67;7.67;;;;;;;;5020214;28;45220;-60
2023/05/01 15:43:41;;;;;;;;;6.33;6.33;;;;;;;;5020781;28;45386;-61
2023/05/01 15:46:06;;;;;;;;;6.33;4.33;;;;;;;;5020365;28;45124;-60
2023/05/01 15:48:32;;;;;;;;;4.33;4.33;;;;;;;;5020227;28;45439;-60
2023/05/01 15:50:57;;;;;;;;;5.67;5.00;;;;;;;;5020113;28;45331;-61
2023/05/01 15:53:22;;;;;;;;;4.33;4.33;;;;;;;;5020525;28;45506;-60
2023/05/01 15:55:48;;;;;;;;;7.00;5.00;;;;;;;;5019993;28;45569;-61
2023/05/01 15:58:13;;;;;;;;;3.33;3.33;;;;;;;;5020380;28;45547;-60
2023/05/01 16:00:38;;;;;;;;;6.67;6.00;;;;;;;;5019909;28;45299;-61
2023/05/01 16:03:04;;;;;;;;;5.00;5.00;;;;;;;;5020534;28;45401;-60
2023/05/01 16:05:29;;;;;;;;;5.67;5.67;;;;;;;;5019885;28;45741;-61
2023/05/01 16:07:54;;;;;;;;;9.33;5.67;;;;;;;;5019908;28;46245;-60
2023/05/01 16:10:21;;;;;;;;;4.67;4.67;;;;;;;;5019826;28;45346;-66
2023/05/01 16:12:49;;;;;;;;;6.00;6.00;;;;;;;;5020200;28;45513;-61
2023/05/01 16:15:14;;;;;;;;;6.00;4.33;;;;;;;;5020155;28;45363;-60
2023/05/01 16:17:43;;;;;;;;;4.00;3.67;;;;;;;;5019811;28;46187;-61
2023/05/01 16:20:12;;;;;;;;;6.33;4.33;;;;;;;;5019521;28;45367;-60
2023/05/01 16:22:39;;;;;;;;;5.00;5.00;;;;;;;;5019961;28;45450;-60
2023/05/01 16:25:04;;;;;;;;;6.00;5.67;;;;;;;;5020056;28;45241;-60
2023/05/01 16:27:29;;;;;;;;;5.33;5.33;;;;;;;;5019584;28;46051;-60
2023/05/01 16:29:54;;;;;;;;;6.67;6.67;;;;;;;;5017145;28;45402;-60
2023/05/01 16:32:20;;;;;;;;;6.33;6.00;;;;;;;;5010760;28;45372;-61
2023/05/01 16:34:45;;;;;;;;;12.67;7.00;;;;;;;;5019463;28;45269;-60
2023/05/01 16:37:11;;;;;;;;;9.00;8.00;;;;;;;;5023206;28;46846;-61
2023/05/01 16:39:37;;;;;;;;;9.33;9.00;;;;;;;;5023022;28;45318;-60
2023/05/01 16:42:02;;;;;;;;;7.00;7.00;;;;;;;;5023132;28;45388;-60
2023/05/01 16:44:27;;;;;;;;;12.00;10.33;;;;;;;;5022934;28;45371;-60
2023/05/01 16:46:57;;;;;;;;;10.67;9.00;;;;;;;;5022803;28;46345;-60
2023/05/01 16:49:22;;;;;;;;;8.67;8.67;;;;;;;;5037914;28;45314;-60
2023/05/01 16:51:48;;;;;;;;;8.33;8.00;;;;;;;;5023156;28;45209;-60
2023/05/01 16:54:14;;;;;;;;;12.67;8.33;;;;;;;;5023110;28;45312;-60
2023/05/01 16:56:39;;;;;;;;;10.67;9.00;;;;;;;;5022825;28;45228;-61
2023/05/01 16:59:04;;;;;;;;;8.67;8.67;;;;;;;;5022614;28;45393;-60
2023/05/01 17:01:30;;;;;;;;;8.33;8.33;;;;;;;;5022871;28;45157;-60
2023/05/01 17:03:55;;;;;;;;;9.33;7.67;;;;;;;;5022485;28;45240;-60
2023/05/01 17:06:20;;;;;;;;;6.67;6.00;;;;;;;;5022727;28;46188;-60
2023/05/01 17:08:45;;;;;;;;;11.33;8.67;;;;;;;;5022669;28;45112;-60
2023/05/01 17:11:13;;;;;;;;;9.33;7.67;;;;;;;;5022809;28;45422;-60
2023/05/01 17:13:38;;;;;;;;;7.00;7.00;;;;;;;;5022604;28;45414;-60
2023/05/01 17:16:03;;;;;;;;;11.00;9.00;;;;;;;;5022564;28;46146;-61
2023/05/01 17:18:28;;;;;;;;;8.00;7.00;;;;;;;;5022062;28;45331;-60
2023/05/01 17:20:54;;;;;;;;;12.33;12.33;;;;;;;;5022672;28;45472;-60
2023/05/01 17:23:20;;;;;;;;;9.00;9.00;;;;;;;;5022637;28;45245;-61
2023/05/01 17:25:45;;;;;;;;;9.33;8.33;;;;;;;;5022175;28;45346;-60
2023/05/01 17:28:10;;;;;;;;;10.00;10.00;;;;;;;;5022310;28;45310;-60
2023/05/01 17:30:36;;;;;;;;;12.33;11.00;;;;;;;;5014282;28;45407;-61
2023/05/01 17:33:01;;;;;;;;;11.67;9.33;;;;;;;;5019553;28;45274;-60
2023/05/01 17:35:26;;;;;;;;;10.33;9.67;;;;;;;;5022144;28;45726;-60
2023/05/01 17:37:51;;;;;;;;;13.33;12.33;;;;;;;;5022136;28;45300;-60
2023/05/01 17:40:16;;;;;;;;;10.67;9.00;;;;;;;;5022226;28;45295;-60
2023/05/01 17:42:43;;;;;;;;;11.33;10.00;;;;;;;;5022232;28;45475;-60
2023/05/01 17:45:09;;;;;;;;;20.33;11.00;;;;;;;;5022029;28;46065;-60
2023/05/01 17:47:34;;;;;;;;;12.00;10.00;;;;;;;;5021527;28;45334;-60
2023/05/01 17:50:03;;;;;;;;;10.00;8.00;;;;;;;;5021824;28;45326;-60
2023/05/01 17:52:28;;;;;;;;;8.67;8.67;;;;;;;;5022319;28;45457;-60
2023/05/01 17:54:53;;;;;;;;;8.67;6.67;;;;;;;;5021877;28;46234;-60
2023/05/01 17:57:19;;;;;;;;;15.67;10.67;;;;;;;;5021696;28;45397;-60
2023/05/01 17:59:44;;;;;;;;;11.33;8.67;;;;;;;;5022065;28;45357;-60
2023/05/01 18:02:09;;;;;;;;;11.00;11.00;;;;;;;;5021911;28;45549;-62
2023/05/01 18:04:34;;;;;;;;;12.67;12.67;;;;;;;;5021492;28;46883;-60
2023/05/01 18:07:00;;;;;;;;;13.67;13.33;;;;;;;;5021768;28;45295;-60
2023/05/01 18:09:25;;;;;;;;;13.67;10.33;;;;;;;;5021977;28;45345;-60
2023/05/01 18:11:50;;;;;;;;;10.67;10.67;;;;;;;;5021651;28;45312;-60
2023/05/01 18:14:16;;;;;;;;;12.67;11.00;;;;;;;;5021667;28;46262;-61
2023/05/01 18:16:41;;;;;;;;;10.33;8.00;;;;;;;;5021559;28;45287;-61
2023/05/01 18:19:06;;;;;;;;;8.00;6.67;;;;;;;;5021426;28;45325;-61
2023/05/01 18:21:32;;;;;;;;;7.33;7.33;;;;;;;;5021825;28;45472;-61
2023/05/01 18:23:57;;;;;;;;;8.00;8.00;;;;;;;;5021513;28;46963;-61
2023/05/01 18:26:25;;;;;;;;;8.00;6.00;;;;;;;;5021351;28;45196;-60
2023/05/01 18:28:50;;;;;;;;;10.00;7.00;;;;;;;;5021802;28;45315;-60
2023/05/01 18:31:16;;;;;;;;;6.00;5.00;;;;;;;;5010216;28;45275;-60
2023/05/01 18:33:41;;;;;;;;;5.67;5.67;;;;;;;;5021159;28;46915;-60
2023/05/01 18:36:06;;;;;;;;;10.33;7.67;;;;;;;;5021444;28;45442;-60
2023/05/01 18:38:32;;;;;;;;;6.00;6.00;;;;;;;;5021548;28;45380;-60
2023/05/01 18:40:57;;;;;;;;;9.00;5.00;;;;;;;;5021244;28;45456;-60
2023/05/01 18:43:22;;;;;;;;;8.00;6.00;;;;;;;;5021296;28;46289;-60
2023/05/01 18:45:47;;;;;;;;;8.00;6.00;;;;;;;;5021152;28;45406;-60
2023/05/01 18:48:12;;;;;;;;;6.00;5.33;;;;;;;;5021253;28;45282;-60
2023/05/01 18:50:37;;;;;;;;;7.00;5.33;;;;;;;;5021149;28;45303;-60
2023/05/01 18:53:03;;;;;;;;;8.33;7.67;;;;;;;;5021195;28;46293;-60
2023/05/01 18:55:28;;;;;;;;;6.00;6.00;;;;;;;;5020876;28;45316;-60
2023/05/01 18:57:53;;;;;;;;;9.00;7.00;;;;;;;;5021469;28;45295;-60
2023/05/01 19:00:20;;;;;;;;;5.00;5.00;;;;;;;;5019733;28;45293;-60
2023/05/01 19:02:50;;;;;;;;;6.33;5.67;;;;;;;;5021140;28;46338;-60
2023/05/01 19:05:15;;;;;;;;;7.00;5.00;;;;;;;;5020554;28;45350;-60
2023/05/01 19:07:40;;;;;;;;;7.00;5.67;;;;;;;;5021122;28;45339;-60
2023/05/01 19:10:06;;;;;;;;;6.00;6.00;;;;;;;;5021277;28;45394;-60
2023/05/01 19:12:31;;;;;;;;;5.00;5.00;;;;;;;;5020767;28;46325;-60
2023/05/01 19:14:56;;;;;;;;;6.33;5.67;;;;;;;;5036048;28;45311;-60
2023/05/01 19:17:21;;;;;;;;;7.33;7.33;;;;;;;;5020958;28;45207;-60
2023/05/01 19:19:46;;;;;;;;;6.00;4.33;;;;;;;;5020412;28;45687;-60
2023/05/01 19:22:12;;;;;;;;;7.00;6.00;;;;;;;;5020842;28;46118;-60
2023/05/01 19:24:37;;;;;;;;;5.33;5.33;;;;;;;;5020605;28;45403;-60